Time;durP1;ratioP1;P1;durP2;ratioP2;P2;SDS_P1;SDS_P2;PMS_P1;PMS_P2;Temp;Humidity;BMP_temperature;BMP_pressure;BME280_temperature;BME280_humidity;BME280_pressure;Samples;Min_cycle;Max_cycle;Signal;HPM_P1;HPM_P2
2022/12/22 03:26:02;;;;;;;2.35;0.90;;;20.30;63.80;;;;;;5085875;28;20089;-46
2022/12/22 03:28:29;;;;;;;2.75;0.20;;;20.30;63.80;;;;;;5085304;28;20044;-45
2022/12/22 03:30:58;;;;;;;1.58;0.17;;;20.30;63.70;;;;;;5086106;28;20077;-46
2022/12/22 03:33:28;;;;;;;4.38;0.55;;;20.30;63.80;;;;;;5084522;28;20580;-45
2022/12/22 03:35:55;;;;;;;3.47;1.70;;;20.30;63.70;;;;;;5085520;28;20040;-44
2022/12/22 03:38:22;;;;;;;3.58;0.20;;;20.30;63.80;;;;;;5085306;28;20044;-45
2022/12/22 03:40:49;;;;;;;6.20;0.70;;;20.30;63.70;;;;;;5089566;28;20093;-45
2022/12/22 03:49:08;;;;;;;5.38;0.45;;;20.30;63.70;;;;;;5089245;28;20610;-46
2022/12/22 03:51:37;;;;;;;2.28;1.02;;;20.30;63.80;;;;;;5089390;28;20044;-45
2022/12/22 03:54:04;;;;;;;5.03;0.40;;;20.30;63.70;;;;;;5074676;28;20150;-45
2022/12/22 03:56:31;;;;;;;4.97;0.30;;;20.30;63.70;;;;;;5088507;28;20087;-45
2022/12/22 03:58:58;;;;;;;5.18;0.85;;;20.30;63.70;;;;;;5088712;28;20039;-46
2022/12/22 04:01:25;;;;;;;5.82;0.50;;;20.30;63.70;;;;;;5089442;28;20044;-47
2022/12/22 04:03:54;;;;;;;4.32;0.43;;;20.30;63.80;;;;;;5089534;28;20477;-45
2022/12/22 04:06:21;;;;;;;2.83;0.10;;;20.30;63.70;;;;;;5087958;28;20137;-46
2022/12/22 04:08:48;;;;;;;3.50;0.30;;;20.30;63.70;;;;;;5088910;28;20050;-45
2022/12/22 04:14:03;;;;;;;6.10;0.38;;;20.30;63.70;;;;;;5087699;28;20403;-47
2022/12/22 04:16:30;;;;;;;3.85;0.35;;;20.30;63.80;;;;;;5088945;28;20042;-46
2022/12/22 04:18:59;;;;;;;4.50;0.70;;;20.30;63.70;;;;;;5088859;28;20118;-43
2022/12/22 04:21:26;;;;;;;1.58;0.90;;;20.30;63.70;;;;;;5104989;28;20047;-43
2022/12/22 04:23:53;;;;;;;5.50;0.30;;;20.20;63.70;;;;;;5089894;28;20122;-44
2022/12/22 04:26:22;;;;;;;2.65;0.35;;;20.30;63.70;;;;;;5083251;28;20036;-43
2022/12/22 04:28:50;;;;;;;6.25;1.08;;;20.30;63.60;;;;;;5088840;28;20036;-43
2022/12/22 04:31:18;;;;;;;3.28;0.85;;;20.30;63.70;;;;;;5088543;28;20047;-44
2022/12/22 04:33:45;;;;;;;1.88;0.20;;;20.20;63.50;;;;;;5088595;28;20033;-43
2022/12/22 04:36:13;;;;;;;4.35;1.30;;;20.20;63.50;;;;;;5088772;28;20047;-43
2022/12/22 04:38:41;;;;;;;1.88;0.20;;;20.20;63.60;;;;;;5088339;28;20101;-43
2022/12/22 04:41:08;;;;;;;3.13;0.30;;;20.20;63.70;;;;;;5088256;28;20139;-44
2022/12/22 04:43:36;;;;;;;4.45;0.57;;;20.20;63.80;;;;;;5088884;28;20499;-43
2022/12/22 04:46:03;;;;;;;3.60;0.77;;;20.20;63.80;;;;;;5088719;28;20044;-43
2022/12/22 04:48:31;;;;;;;4.70;0.20;;;20.20;63.80;;;;;;5088413;28;20075;-47
2022/12/22 04:51:00;;;;;;;4.32;1.23;;;20.20;63.70;;;;;;5088272;28;20048;-44
2022/12/22 04:53:30;;;;;;;4.35;0.30;;;20.30;63.70;;;;;;5088804;28;20501;-45
2022/12/22 04:56:00;;;;;;;1.23;0.10;;;20.20;63.70;;;;;;5088498;28;20768;-45
2022/12/22 04:58:28;;;;;;;3.10;0.32;;;20.20;63.60;;;;;;5088273;28;20498;-44
2022/12/22 05:00:55;;;;;;;0.98;0.40;;;20.20;63.70;;;;;;5087959;28;20147;-44
2022/12/22 05:03:23;;;;;;;3.58;0.73;;;20.20;63.60;;;;;;5087909;28;20389;-44
2022/12/22 05:05:50;;;;;;;3.80;0.20;;;20.20;63.70;;;;;;5087617;28;20597;-45
2022/12/22 05:08:17;;;;;;;2.60;0.20;;;20.20;63.70;;;;;;5088699;28;20040;-45
2022/12/22 05:10:46;;;;;;;0.85;0.10;;;20.20;63.70;;;;;;5088254;28;20125;-44
2022/12/22 05:13:13;;;;;;;0.55;0.10;;;20.20;63.70;;;;;;5085151;28;20043;-43
2022/12/22 05:15:40;;;;;;;2.30;0.35;;;20.20;63.60;;;;;;5088203;28;20090;-44
2022/12/22 05:18:07;;;;;;;1.67;0.25;;;20.20;63.60;;;;;;5086940;28;20040;-45
2022/12/22 05:20:36;;;;;;;1.52;0.13;;;20.20;63.60;;;;;;5087688;28;20036;-45
2022/12/22 05:23:03;;;;;;;2.10;0.30;;;20.20;63.60;;;;;;5088185;28;20044;-44
2022/12/22 05:25:30;;;;;;;0.30;0.10;;;20.20;63.60;;;;;;5077800;28;20048;-46
2022/12/22 05:27:58;;;;;;;3.13;0.20;;;20.20;63.60;;;;;;5073617;28;20051;-43
2022/12/22 05:30:25;;;;;;;2.40;0.10;;;20.20;63.60;;;;;;5085100;28;20078;-43
2022/12/22 05:32:53;;;;;;;0.60;0.10;;;20.10;64.10;;;;;;5087863;28;20043;-43
2022/12/22 05:35:20;;;;;;;0.60;0.10;;;20.20;63.50;;;;;;5088388;28;20079;-44
2022/12/22 05:37:47;;;;;;;1.33;0.65;;;20.20;63.50;;;;;;5088359;28;20419;-44
2022/12/22 05:40:14;;;;;;;1.05;0.10;;;20.10;63.40;;;;;;5087330;28;20691;-44
2022/12/22 05:42:41;;;;;;;0.10;0.00;;;20.20;63.50;;;;;;5088003;28;20036;-45
2022/12/22 05:45:14;;;;;;;1.88;0.10;;;20.20;63.40;;;;;;5087471;28;20138;-43
2022/12/22 05:47:41;;;;;;;1.60;0.10;;;20.10;63.30;;;;;;5087772;28;20055;-49
2022/12/22 05:50:10;;;;;;;1.60;0.20;;;20.20;63.40;;;;;;5087793;28;20071;-44
2022/12/22 05:52:37;;;;;;;2.75;0.05;;;20.20;63.40;;;;;;5087794;28;20143;-45
2022/12/22 05:55:05;;;;;;;1.95;0.20;;;20.10;63.20;;;;;;5087151;28;20583;-43
2022/12/22 05:57:32;;;;;;;2.97;0.32;;;20.10;63.30;;;;;;5088410;28;20043;-45
2022/12/22 05:59:59;;;;;;;1.38;0.00;;;20.10;63.40;;;;;;5088325;28;20151;-45
2022/12/22 06:02:28;;;;;;;1.60;0.75;;;20.10;63.40;;;;;;5072988;28;20047;-43
2022/12/22 06:04:55;;;;;;;3.20;0.20;;;20.20;63.40;;;;;;5066934;28;20042;-45
2022/12/22 06:07:22;;;;;;;2.08;0.55;;;20.10;63.90;;;;;;5077702;28;20056;-45
2022/12/22 06:09:49;;;;;;;1.63;0.00;;;20.10;63.40;;;;;;5087153;28;20036;-48
2022/12/22 06:12:16;;;;;;;0.57;0.00;;;20.10;63.50;;;;;;5087430;28;20097;-44
2022/12/22 06:14:43;;;;;;;0.20;0.00;;;20.20;63.50;;;;;;5087154;28;20131;-44
2022/12/22 06:17:10;;;;;;;0.63;0.63;;;20.10;63.50;;;;;;5085728;28;20047;-45
2022/12/22 06:19:38;;;;;;;3.58;0.00;;;20.10;63.50;;;;;;5087928;28;20050;-45
2022/12/22 06:22:06;;;;;;;0.20;0.05;;;20.20;64.20;;;;;;5078039;28;20135;-45
2022/12/22 06:24:33;;;;;;;0.80;0.10;;;20.10;63.60;;;;;;5086874;28;20036;-44
2022/12/22 06:27:00;;;;;;;0.10;0.00;;;20.10;63.60;;;;;;5085560;28;20056;-43
2022/12/22 06:29:27;;;;;;;0.63;0.10;;;20.10;63.60;;;;;;5085844;28;20048;-44
2022/12/22 06:31:54;;;;;;;0.80;0.10;;;20.10;63.60;;;;;;5087287;28;20047;-44
2022/12/22 06:34:21;;;;;;;0.68;0.00;;;20.10;63.60;;;;;;5086786;28;20044;-44
2022/12/22 06:36:50;;;;;;;0.85;0.10;;;20.10;63.60;;;;;;5087035;28;20044;-45
2022/12/22 06:39:17;;;;;;;1.80;0.08;;;20.10;63.60;;;;;;5087092;28;20044;-46
2022/12/22 06:44:29;;;;;;;0.10;0.00;;;20.10;63.70;;;;;;5086981;28;20055;-45
2022/12/22 06:46:56;;;;;;;1.25;0.20;;;20.00;63.70;;;;;;5087282;28;20530;-44
2022/12/22 06:49:23;;;;;;;0.88;0.05;;;20.10;63.80;;;;;;5087331;28;20637;-47
2022/12/22 06:51:52;;;;;;;0.30;0.30;;;20.00;63.80;;;;;;5086174;28;20059;-46
2022/12/22 06:54:19;;;;;;;0.95;0.55;;;20.00;63.80;;;;;;5087067;28;20050;-44
2022/12/22 06:56:46;;;;;;;7.88;0.20;;;20.10;63.90;;;;;;5086874;28;20060;-44
2022/12/22 06:59:13;;;;;;;1.48;0.20;;;20.10;63.90;;;;;;5086882;28;20040;-45
2022/12/22 07:01:41;;;;;;;1.27;0.75;;;20.10;64.00;;;;;;5086917;28;20131;-44
2022/12/22 07:04:08;;;;;;;1.42;0.10;;;20.10;64.00;;;;;;5080133;28;20048;-45
2022/12/22 07:06:35;;;;;;;2.35;0.20;;;20.10;64.10;;;;;;5067717;28;20062;-48
2022/12/22 07:09:04;;;;;;;2.42;0.10;;;20.00;64.10;;;;;;5086821;28;20094;-43
2022/12/22 07:11:31;;;;;;;2.00;0.10;;;20.10;64.20;;;;;;5086903;28;20095;-46
2022/12/22 07:13:58;;;;;;;3.80;0.60;;;20.10;64.20;;;;;;5090345;28;20070;-44
2022/12/22 07:16:25;;;;;;;3.40;0.20;;;20.00;64.20;;;;;;5090925;28;20050;-44
2022/12/22 07:18:52;;;;;;;3.85;0.32;;;20.00;64.20;;;;;;5090660;28;20437;-44
2022/12/22 07:21:19;;;;;;;2.72;0.22;;;20.00;64.20;;;;;;5090701;28;20044;-44
2022/12/22 07:23:46;;;;;;;1.85;0.13;;;20.00;64.20;;;;;;5090928;28;20654;-45
2022/12/22 07:26:15;;;;;;;1.92;0.43;;;20.00;64.30;;;;;;5090384;28;20046;-44
2022/12/22 07:28:42;;;;;;;3.55;0.40;;;20.00;64.30;;;;;;5090722;28;20044;-44
2022/12/22 07:31:10;;;;;;;3.15;0.35;;;20.10;64.30;;;;;;5087460;28;20823;-49
2022/12/22 07:33:38;;;;;;;2.85;0.20;;;20.10;64.50;;;;;;5083761;28;20044;-47
2022/12/22 07:36:07;;;;;;;3.50;0.50;;;20.10;64.80;;;;;;5088622;28;20046;-47
2022/12/22 07:38:36;;;;;;;9.80;0.70;;;20.10;65.00;;;;;;5087021;28;20086;-49
2022/12/22 07:41:03;;;;;;;2.63;0.40;;;20.10;65.00;;;;;;5082986;28;20054;-49
2022/12/22 07:43:30;;;;;;;5.30;0.35;;;20.00;65.10;;;;;;5090221;28;20520;-46
2022/12/22 07:45:57;;;;;;;4.38;0.20;;;20.10;65.10;;;;;;5089918;28;20568;-46
2022/12/22 07:51:09;;;;;;;9.10;0.40;;;20.00;65.30;;;;;;5089710;28;20120;-47
2022/12/22 07:53:36;;;;;;;5.95;0.43;;;20.10;65.40;;;;;;5089372;28;20135;-46
2022/12/22 07:56:04;;;;;;;4.47;0.90;;;20.10;65.50;;;;;;5089780;28;20052;-47
2022/12/22 07:58:33;;;;;;;9.32;1.58;;;20.10;65.50;;;;;;5089941;28;20036;-46
2022/12/22 08:01:01;;;;;;;9.95;1.45;;;20.10;65.50;;;;;;5089887;28;20048;-46
2022/12/22 08:03:28;;;;;;;7.90;0.68;;;20.10;65.50;;;;;;5089754;28;20493;-46
2022/12/22 08:05:55;;;;;;;6.30;0.55;;;20.10;65.60;;;;;;5089811;28;20127;-46
2022/12/22 08:08:22;;;;;;;9.05;1.30;;;20.20;65.60;;;;;;5089710;28;20417;-46
2022/12/22 08:10:49;;;;;;;12.77;1.17;;;20.10;65.50;;;;;;5089015;28;20071;-49
2022/12/22 08:13:16;;;;;;;12.25;1.10;;;20.10;65.50;;;;;;5094505;28;20423;-47
2022/12/22 08:15:45;;;;;;;11.77;1.70;;;20.20;65.60;;;;;;5089424;28;20087;-47
2022/12/22 08:18:12;;;;;;;12.32;1.60;;;20.20;65.50;;;;;;5089063;28;20062;-47
2022/12/22 08:20:39;;;;;;;11.85;1.58;;;20.20;65.50;;;;;;5088408;28;20044;-47
2022/12/22 08:23:06;;;;;;;8.02;1.08;;;20.20;65.50;;;;;;5089236;28;20039;-46
2022/12/22 08:25:34;;;;;;;8.10;1.50;;;20.20;65.50;;;;;;5088251;28;20110;-46
2022/12/22 08:28:02;;;;;;;8.75;1.55;;;20.20;65.40;;;;;;5076526;28;20489;-47
2022/12/22 08:30:29;;;;;;;8.80;1.85;;;20.20;65.40;;;;;;5089040;28;20124;-50
2022/12/22 08:32:57;;;;;;;9.70;1.10;;;20.20;65.30;;;;;;5082020;28;20036;-47
2022/12/22 08:35:25;;;;;;;16.38;2.17;;;20.30;65.30;;;;;;5086073;28;20044;-46
2022/12/22 08:37:53;;;;;;;10.20;0.98;;;20.20;65.20;;;;;;5086619;28;20032;-46
2022/12/22 08:40:26;;;;;;;28.70;2.53;;;20.20;65.30;;;;;;5088799;28;20039;-58
2022/12/22 08:42:58;;;;;;;12.55;1.65;;;20.30;65.60;;;;;;5075164;28;20080;-45
2022/12/22 08:45:25;;;;;;;11.55;1.02;;;20.30;66.20;;;;;;5082959;28;20051;-52
2022/12/22 08:47:52;;;;;;;17.27;2.38;;;20.40;65.70;;;;;;5086947;28;20851;-49
2022/12/22 08:50:21;;;;;;;15.00;2.17;;;20.40;65.70;;;;;;5088042;28;20060;-49
2022/12/22 08:52:48;;;;;;;13.88;1.27;;;20.50;65.80;;;;;;5090298;28;20046;-48
2022/12/22 08:55:15;;;;;;;11.40;2.60;;;20.60;65.70;;;;;;5088697;28;20048;-54
2022/12/22 08:57:42;;;;;;;17.52;2.72;;;20.70;65.60;;;;;;5088523;28;20040;-47
2022/12/22 09:00:11;;;;;;;21.17;3.65;;;20.70;65.40;;;;;;5088511;28;20145;-60
2022/12/22 09:02:38;;;;;;;23.48;4.30;;;20.80;65.20;;;;;;5088300;28;20093;-56
2022/12/22 09:05:06;;;;;;;16.63;3.55;;;20.80;65.10;;;;;;5087962;28;20090;-58
2022/12/22 09:07:34;;;;;;;14.23;2.35;;;20.90;64.90;;;;;;5088365;28;20124;-59
2022/12/22 09:10:02;;;;;;;14.15;2.20;;;20.90;64.70;;;;;;5088189;28;20064;-60
2022/12/22 09:12:29;;;;;;;9.48;1.92;;;21.00;64.60;;;;;;5086749;28;20044;-57
2022/12/22 09:14:56;;;;;;;11.88;3.00;;;21.00;64.50;;;;;;5087840;28;20055;-62
2022/12/22 09:17:23;;;;;;;8.95;1.70;;;21.10;64.40;;;;;;5080162;28;20135;-60
2022/12/22 09:19:50;;;;;;;8.52;1.35;;;21.10;64.20;;;;;;5087711;28;20067;-59
2022/12/22 09:22:17;;;;;;;12.68;2.30;;;21.20;64.10;;;;;;5071545;28;20035;-60
2022/12/22 09:24:46;;;;;;;15.80;2.33;;;21.10;63.90;;;;;;5088199;28;20056;-62
2022/12/22 09:27:13;;;;;;;14.55;2.25;;;21.20;63.80;;;;;;5084816;28;20033;-62
2022/12/22 09:29:40;;;;;;;16.27;2.85;;;21.30;63.70;;;;;;5089907;28;20480;-62
2022/12/22 09:32:07;;;;;;;18.10;3.78;;;21.30;63.60;;;;;;5087498;28;20097;-49
2022/12/22 09:34:35;;;;;;;16.67;2.60;;;21.30;63.60;;;;;;5085011;28;20460;-49
2022/12/22 09:37:02;;;;;;;16.08;5.30;;;21.40;63.60;;;;;;5087805;28;20551;-49
2022/12/22 09:39:29;;;;;;;18.45;2.88;;;21.40;63.60;;;;;;5087883;28;20071;-48
2022/12/22 09:41:58;;;;;;;16.63;2.53;;;21.40;63.70;;;;;;5087378;28;20044;-49
2022/12/22 09:44:28;;;;;;;17.27;2.22;;;21.40;64.00;;;;;;5083523;28;20053;-50
2022/12/22 09:46:58;;;;;;;41.97;4.80;;;21.40;64.00;;;;;;5075846;28;20040;-47
2022/12/22 09:49:25;;;;;;;20.90;4.07;;;21.50;64.20;;;;;;5082193;28;20131;-55
2022/12/22 09:51:56;;;;;;;28.02;3.92;;;21.50;64.70;;;;;;5080641;28;20507;-47
2022/12/22 09:54:25;;;;;;;26.13;4.82;;;21.60;65.20;;;;;;5073441;28;20122;-56
2022/12/22 09:56:52;;;;;;;27.30;6.13;;;21.60;65.50;;;;;;5097203;28;20043;-55
2022/12/22 09:59:22;;;;;;;17.70;2.78;;;21.60;66.00;;;;;;5094894;28;20387;-56
2022/12/22 10:02:03;;;;;;;19.65;3.58;;;21.70;66.50;;;;;;5087310;28;20139;-54
2022/12/22 10:04:44;;;;;;;13.50;1.98;;;21.80;66.90;;;;;;5083254;28;20040;-56
2022/12/22 10:07:21;;;;;;;19.63;4.47;;;21.80;67.20;;;;;;5089507;28;20093;-57
2022/12/22 10:09:48;;;;;;;16.05;2.03;;;21.90;67.50;;;;;;5087038;28;20071;-56
2022/12/22 10:12:18;;;;;;;9.80;2.13;;;21.90;67.60;;;;;;5087151;28;20040;-57
2022/12/22 10:14:48;;;;;;;21.17;3.72;;;22.00;67.70;;;;;;5086996;28;20097;-57
2022/12/22 10:17:21;;;;;;;14.38;2.20;;;22.00;67.70;;;;;;5087108;28;20159;-55
2022/12/22 10:19:50;;;;;;;15.73;4.88;;;22.10;67.60;;;;;;5086541;28;20040;-54
2022/12/22 10:22:27;;;;;;;19.60;2.63;;;22.10;67.40;;;;;;5086952;28;20051;-58
2022/12/22 10:24:54;;;;;;;14.55;4.32;;;22.20;67.40;;;;;;5086886;28;20125;-55
2022/12/22 10:27:23;;;;;;;15.60;2.72;;;22.20;67.20;;;;;;5085873;28;20119;-55
2022/12/22 10:29:52;;;;;;;16.33;2.00;;;22.30;67.20;;;;;;5086571;28;20151;-55
2022/12/22 10:32:21;;;;;;;20.25;3.13;;;22.40;67.00;;;;;;5084077;28;20050;-54
2022/12/22 10:35:09;;;;;;;12.23;2.10;;;22.40;66.80;;;;;;5082024;28;20428;-54
2022/12/22 10:37:39;;;;;;;17.98;2.95;;;22.50;66.40;;;;;;5080776;28;20135;-55
2022/12/22 10:40:15;;;;;;;20.13;4.05;;;22.50;66.30;;;;;;5085185;28;20041;-51
2022/12/22 10:42:47;;;;;;;;;;;22.60;65.90;;;;;;5084004;28;20070;-48
2022/12/22 10:45:21;;;;;;;10.93;1.73;;;22.60;65.70;;;;;;5082270;28;20377;-57
2022/12/22 10:47:50;;;;;;;15.80;2.35;;;22.60;65.30;;;;;;5086987;28;20509;-52
2022/12/22 10:50:18;;;;;;;22.13;6.55;;;22.60;65.00;;;;;;5083414;28;20059;-57
2022/12/22 10:52:52;;;;;;;23.85;3.22;;;22.70;64.80;;;;;;5075069;28;20052;-56
2022/12/22 10:55:24;;;;;;;17.88;3.17;;;22.70;64.50;;;;;;5085829;28;20146;-55
2022/12/22 10:57:51;;;;;;;23.65;3.67;;;22.70;64.30;;;;;;5085706;28;20096;-56
2022/12/22 11:00:26;;;;;;;23.60;3.50;;;22.70;64.10;;;;;;5086343;28;20060;-56
2022/12/22 11:02:54;;;;;;;15.63;4.18;;;22.80;63.90;;;;;;5086283;28;20068;-57
2022/12/22 11:05:21;;;;;;;24.67;4.03;;;22.70;63.80;;;;;;5086385;28;20040;-55
2022/12/22 11:07:48;;;;;;;19.25;4.70;;;22.70;63.70;;;;;;5086049;28;20457;-52
2022/12/22 11:10:19;;;;;;;21.63;3.53;;;22.80;63.60;;;;;;5086407;28;20040;-54
2022/12/22 11:13:01;;;;;;;30.55;4.97;;;22.80;63.50;;;;;;5085886;28;20109;-52
2022/12/22 11:15:37;;;;;;;41.75;7.28;;;22.80;63.70;;;;;;5086530;28;20043;-51
2022/12/22 11:18:15;;;;;;;28.95;5.00;;;22.80;64.00;;;;;;5086277;28;20060;-50
2022/12/22 11:20:51;;;;;;;40.40;4.35;;;22.70;64.20;;;;;;5070830;28;20079;-53
2022/12/22 11:23:25;;;;;;;29.17;5.18;;;22.70;61.90;;;;;;5083346;28;20071;-52
2022/12/22 11:26:01;;;;;;;35.13;6.20;;;22.50;61.90;;;;;;5074709;28;20135;-55
2022/12/22 11:28:39;;;;;;;32.22;4.63;;;22.50;62.50;;;;;;5075752;28;20123;-56
2022/12/22 11:31:23;;;;;;;28.98;5.03;;;22.40;63.40;;;;;;5086677;28;20567;-55
2022/12/22 11:34:02;;;;;;;34.88;4.25;;;22.40;63.20;;;;;;5088176;28;20139;-54
2022/12/22 11:36:38;;;;;;;22.80;3.95;;;22.30;63.40;;;;;;5086460;28;20571;-55
2022/12/22 11:39:12;;;;;;;27.83;4.80;;;22.30;63.60;;;;;;5086001;28;20075;-54
2022/12/22 11:41:56;;;;;;;28.13;3.75;;;22.30;63.80;;;;;;5081629;28;20131;-54
2022/12/22 11:44:41;;;;;;;24.83;5.25;;;22.30;63.90;;;;;;5086182;28;20134;-51
2022/12/22 11:47:22;;;;;;;27.13;5.70;;;22.20;64.00;;;;;;5086274;28;20072;-51
2022/12/22 11:50:06;;;;;;;25.73;3.60;;;22.20;64.10;;;;;;5086146;28;20113;-53
2022/12/22 11:52:47;;;;;;;24.70;2.58;;;22.20;64.30;;;;;;5086042;28;20097;-53
2022/12/22 11:55:27;;;;;;;21.67;3.25;;;22.20;64.40;;;;;;5085987;28;20071;-52
2022/12/22 11:58:04;;;;;;;19.30;3.88;;;22.10;64.30;;;;;;5085883;28;20101;-54
2022/12/22 12:00:40;;;;;;;17.55;2.92;;;22.10;64.40;;;;;;5087023;28;20131;-53
2022/12/22 12:03:37;;;;;;;19.88;3.33;;;22.10;64.40;;;;;;5092459;28;20447;-56
2022/12/22 12:06:26;;;;;;;15.70;3.15;;;22.10;64.40;;;;;;5090086;28;20552;-54
2022/12/22 12:09:04;;;;;;;24.90;3.78;;;22.10;64.50;;;;;;5090236;28;20458;-55
2022/12/22 12:11:38;;;;;;;15.10;5.35;;;22.10;64.60;;;;;;5089327;28;20071;-56
2022/12/22 12:14:16;;;;;;;12.60;2.90;;;22.10;65.10;;;;;;5082135;28;20168;-60
2022/12/22 12:16:51;;;;;;;24.50;4.38;;;22.10;64.60;;;;;;5090260;28;20048;-60
2022/12/22 12:19:51;;;;;;;17.65;3.25;;;22.10;64.80;;;;;;5095668;28;20035;-50
2022/12/22 12:22:30;;;;;;;19.70;4.57;;;22.10;64.90;;;;;;5078663;28;20063;-48
2022/12/22 12:25:01;;;;;;;16.02;4.70;;;22.00;65.40;;;;;;5087888;28;20058;-50
2022/12/22 12:27:45;;;;;;;20.10;3.45;;;22.00;65.70;;;;;;5088782;28;20101;-49
2022/12/22 12:30:14;;;;;;;16.05;2.90;;;22.10;65.70;;;;;;5088794;28;20036;-49
2022/12/22 12:32:47;;;;;;;18.52;2.65;;;22.00;65.70;;;;;;5088869;28;20043;-50
2022/12/22 12:35:43;;;;;;;14.93;3.95;;;22.00;65.60;;;;;;5088836;28;20109;-49
2022/12/22 12:38:17;;;;;;;17.55;3.20;;;22.00;65.30;;;;;;5089085;28;20043;-50
2022/12/22 12:40:51;;;;;;;12.25;2.17;;;22.00;65.30;;;;;;5088631;28;20790;-48
2022/12/22 12:43:19;;;;;;;14.48;3.30;;;22.00;65.20;;;;;;5088794;28;20071;-49
2022/12/22 12:45:49;;;;;;;19.00;4.45;;;22.00;65.10;;;;;;5088698;28;20044;-49
2022/12/22 12:48:40;;;;;;;16.92;3.17;;;22.00;65.10;;;;;;5088978;28;20043;-49
2022/12/22 12:51:49;;;;;;;18.75;3.70;;;22.00;64.80;;;;;;5088717;28;20040;-48
2022/12/22 12:54:36;;;;;;;17.90;3.05;;;22.00;64.70;;;;;;5077516;28;20067;-49
2022/12/22 12:57:10;;;;;;;;;;;21.90;64.80;;;;;;5089012;28;20040;-49
2022/12/22 12:59:47;;;;;;;18.10;2.20;;;21.80;64.70;;;;;;5088737;28;20320;-48
2022/12/22 13:02:38;;;;;;;11.40;2.22;;;21.90;64.90;;;;;;5088478;28;20143;-49
2022/12/22 13:05:29;;;;;;;16.52;3.33;;;21.90;64.70;;;;;;5088330;28;20113;-49
2022/12/22 13:08:18;;;;;;;14.15;3.63;;;21.90;64.60;;;;;;5088274;28;20036;-49
2022/12/22 13:11:22;;;;;;;19.88;2.42;;;21.80;64.60;;;;;;5088099;28;20044;-49
2022/12/22 13:13:52;;;;;;;14.57;2.85;;;21.80;64.70;;;;;;5088177;28;20044;-50
2022/12/22 13:16:32;;;;;;;22.33;2.47;;;21.70;64.60;;;;;;5088450;28;20148;-51
2022/12/22 13:19:04;;;;;;;12.85;2.63;;;21.80;64.60;;;;;;5078666;28;20103;-52
2022/12/22 13:21:39;;;;;;;11.60;3.35;;;21.70;64.60;;;;;;5088043;28;20047;-50
2022/12/22 13:24:15;;;;;;;26.77;3.47;;;21.70;65.10;;;;;;5087979;28;20117;-50
2022/12/22 13:26:45;;;;;;;18.58;2.47;;;21.70;64.50;;;;;;5076049;28;20165;-51
2022/12/22 13:29:22;;;;;;;15.43;3.70;;;21.70;64.50;;;;;;5087921;28;20151;-50
2022/12/22 13:31:52;;;;;;;16.13;1.65;;;21.70;64.50;;;;;;5087765;28;20066;-50
2022/12/22 13:34:38;;;;;;;11.25;2.08;;;21.60;64.40;;;;;;5088567;28;20051;-50
2022/12/22 13:37:16;;;;;;;15.40;2.85;;;21.70;65.00;;;;;;5078690;28;20044;-53
2022/12/22 13:40:06;;;;;;;13.60;2.85;;;21.70;64.50;;;;;;5091473;28;20040;-52
2022/12/22 13:42:36;;;;;;;18.75;3.92;;;21.60;64.40;;;;;;5088235;28;20078;-48
2022/12/22 13:45:05;;;;;;;17.55;2.03;;;21.60;64.50;;;;;;5088028;28;20061;-48
2022/12/22 13:47:32;;;;;;;15.43;3.65;;;21.60;64.50;;;;;;5088193;28;20042;-50
2022/12/22 13:49:59;;;;;;;9.63;1.33;;;21.60;64.40;;;;;;5087571;28;20922;-48
2022/12/22 13:52:26;;;;;;;17.73;2.65;;;21.50;64.40;;;;;;5087124;28;20040;-48
2022/12/22 13:54:55;;;;;;;18.05;3.83;;;21.50;64.40;;;;;;5087298;28;20040;-48
2022/12/22 13:57:23;;;;;;;14.07;3.53;;;21.60;64.30;;;;;;5087397;28;20132;-49
2022/12/22 13:59:51;;;;;;;11.63;2.00;;;21.50;64.40;;;;;;5089664;28;20093;-51
2022/12/22 14:02:20;;;;;;;14.68;2.35;;;21.50;64.30;;;;;;5087265;28;20098;-49
2022/12/22 14:05:05;;;;;;;9.60;0.80;;;21.50;64.30;;;;;;5080443;28;20044;-57
2022/12/22 14:07:33;;;;;;;14.90;2.22;;;21.50;64.30;;;;;;5085221;28;20048;-66
2022/12/22 14:10:02;;;;;;;14.48;2.05;;;21.50;64.50;;;;;;5084359;28;20040;-68
2022/12/22 14:12:31;;;;;;;9.70;2.53;;;21.50;64.70;;;;;;5097102;28;20412;-49
2022/12/22 14:15:01;;;;;;;12.63;2.03;;;21.50;64.80;;;;;;5086171;28;20119;-55
2022/12/22 14:17:32;;;;;;;14.13;1.88;;;21.50;65.30;;;;;;5071687;28;20047;-49
2022/12/22 14:20:02;;;;;;;11.70;3.83;;;21.50;65.60;;;;;;5087059;28;20535;-55
2022/12/22 14:22:34;;;;;;;20.25;1.42;;;21.40;65.60;;;;;;5092605;28;20046;-48
2022/12/22 14:25:09;;;;;;;9.70;1.33;;;21.50;65.70;;;;;;5088937;28;20572;-48
2022/12/22 14:27:38;;;;;;;18.00;2.10;;;21.40;65.80;;;;;;5086766;28;20036;-55
2022/12/22 14:30:15;;;;;;;19.90;3.33;;;21.40;66.00;;;;;;5086718;28;20044;-47
2022/12/22 14:32:45;;;;;;;11.00;1.45;;;21.40;66.20;;;;;;5085440;28;20052;-55
2022/12/22 14:35:25;;;;;;;8.88;1.40;;;21.50;66.30;;;;;;5084600;28;20455;-49
2022/12/22 14:37:55;;;;;;;8.85;1.85;;;21.50;66.30;;;;;;5086663;28;20151;-52
2022/12/22 14:40:32;;;;;;;15.18;1.60;;;21.40;66.30;;;;;;5076062;28;20047;-55
2022/12/22 14:43:01;;;;;;;17.40;2.08;;;21.50;66.40;;;;;;5086460;28;20091;-56
2022/12/22 14:45:29;;;;;;;11.90;2.15;;;21.50;66.50;;;;;;5086756;28;20153;-55
2022/12/22 14:47:57;;;;;;;14.05;2.25;;;21.50;66.50;;;;;;5077539;28;20067;-58
2022/12/22 14:50:26;;;;;;;12.48;1.40;;;21.50;66.70;;;;;;5074591;28;20040;-53
2022/12/22 14:52:54;;;;;;;14.02;1.35;;;21.50;66.80;;;;;;5086483;28;20054;-60
2022/12/22 14:55:27;;;;;;;11.27;2.17;;;21.50;67.00;;;;;;5086059;28;20123;-58
2022/12/22 14:57:58;;;;;;;8.52;1.58;;;21.50;67.30;;;;;;5086150;28;20128;-58
2022/12/22 15:00:32;;;;;;;12.23;1.05;;;21.50;67.60;;;;;;5086678;28;20088;-57
2022/12/22 15:03:02;;;;;;;12.13;1.25;;;21.60;67.90;;;;;;5086069;28;20048;-56
2022/12/22 15:05:36;;;;;;;16.40;2.13;;;21.60;68.00;;;;;;5086230;28;20113;-54
2022/12/22 15:08:04;;;;;;;13.57;0.90;;;21.60;68.10;;;;;;5086579;28;20036;-51
2022/12/22 15:10:38;;;;;;;16.17;2.15;;;21.60;68.20;;;;;;5086293;28;20424;-61
2022/12/22 15:13:15;;;;;;;8.27;1.70;;;21.60;68.60;;;;;;5083307;28;20136;-65
2022/12/22 15:15:42;;;;;;;11.27;0.80;;;21.60;68.60;;;;;;5086465;28;20028;-58
2022/12/22 15:18:14;;;;;;;16.13;2.58;;;21.60;68.50;;;;;;5074110;28;20044;-52
2022/12/22 15:20:41;;;;;;;7.85;2.25;;;21.70;68.70;;;;;;5073419;28;20059;-64
2022/12/22 15:23:12;;;;;;;16.52;1.90;;;21.70;68.70;;;;;;5080592;28;20113;-48
2022/12/22 15:25:39;;;;;;;14.32;1.05;;;21.70;68.70;;;;;;5079757;28;20076;-50
2022/12/22 15:28:07;;;;;;;7.75;1.83;;;21.70;68.60;;;;;;5085946;28;20514;-54
2022/12/22 15:30:35;;;;;;;11.50;1.52;;;21.70;68.60;;;;;;5088375;28;20044;-56
2022/12/22 15:33:03;;;;;;;10.32;0.82;;;21.80;68.50;;;;;;5085464;28;20126;-53
2022/12/22 15:35:31;;;;;;;6.47;1.13;;;21.80;68.40;;;;;;5088271;28;20051;-58
2022/12/22 15:37:59;;;;;;;8.13;0.95;;;21.80;68.30;;;;;;5090103;28;20076;-55
2022/12/22 15:40:28;;;;;;;10.18;2.28;;;21.80;68.20;;;;;;5087758;28;20410;-60
2022/12/22 15:42:55;;;;;;;13.40;1.65;;;21.80;68.20;;;;;;5087653;28;20135;-56
2022/12/22 15:45:23;;;;;;;11.18;1.45;;;21.80;68.20;;;;;;5078985;28;20135;-63
2022/12/22 15:47:53;;;;;;;7.25;0.82;;;21.80;68.10;;;;;;5083252;28;20036;-63
2022/12/22 15:50:23;;;;;;;10.25;1.05;;;21.80;68.10;;;;;;5080767;28;20036;-64
2022/12/22 15:52:52;;;;;;;9.38;1.55;;;21.80;68.10;;;;;;5085375;28;20037;-61
2022/12/22 15:55:20;;;;;;;3.88;0.70;;;21.80;68.00;;;;;;5086774;28;20067;-53
2022/12/22 15:57:50;;;;;;;10.82;2.42;;;21.90;68.00;;;;;;5089736;28;20055;-55
2022/12/22 16:00:18;;;;;;;8.20;1.38;;;21.90;68.10;;;;;;5087202;28;20040;-50
2022/12/22 16:02:47;;;;;;;6.20;0.73;;;21.90;68.10;;;;;;5091412;28;20049;-54
2022/12/22 16:05:15;;;;;;;9.80;1.08;;;21.90;68.20;;;;;;5088016;28;20135;-48
2022/12/22 16:07:43;;;;;;;6.78;1.13;;;21.90;68.20;;;;;;5085778;28;20704;-59
2022/12/22 16:10:20;;;;;;;5.03;0.63;;;21.90;65.10;;;;;;5081754;28;20407;-53
2022/12/22 16:12:52;;;;;;;3.40;0.50;;;21.80;62.50;;;;;;5085918;28;20044;-57
2022/12/22 16:15:20;;;;;;;4.93;1.15;;;21.60;61.30;;;;;;5088740;28;20052;-54
2022/12/22 16:17:50;;;;;;;11.40;1.85;;;21.40;60.50;;;;;;5086842;28;20058;-54
2022/12/22 16:20:17;;;;;;;3.80;0.40;;;21.10;60.10;;;;;;5089459;28;20044;-55
2022/12/22 16:22:45;;;;;;;3.95;0.52;;;20.90;60.00;;;;;;5089613;28;20040;-56
2022/12/22 16:25:16;;;;;;;7.03;1.60;;;20.70;59.90;;;;;;5088137;28;20055;-58
2022/12/22 16:27:46;;;;;;;2.40;0.38;;;20.50;60.00;;;;;;5087854;28;20131;-57
2022/12/22 16:30:18;;;;;;;1.23;0.20;;;20.30;60.30;;;;;;5089356;28;20584;-57
2022/12/22 16:32:45;;;;;;;1.85;0.30;;;20.20;60.30;;;;;;5081767;28;20123;-56
2022/12/22 16:35:17;;;;;;;3.17;0.35;;;20.00;60.60;;;;;;5089147;28;20048;-56
2022/12/22 16:37:45;;;;;;;3.15;0.10;;;19.90;60.70;;;;;;5089280;28;20044;-57
2022/12/22 16:40:13;;;;;;;5.55;0.15;;;19.70;61.00;;;;;;5088969;28;20067;-58